createdAt,value
2019-04-06T00:00:20.732Z,31.2
2019-04-06T00:03:26.762Z,31.2
2019-04-06T00:06:32.657Z,31.3
2019-04-06T00:09:38.583Z,31.3
2019-04-06T00:12:44.539Z,31.3
2019-04-06T00:15:50.508Z,31.3
2019-04-06T00:18:56.563Z,31.5
2019-04-06T00:22:02.545Z,31.4
2019-04-06T00:25:08.590Z,31.6
2019-04-06T00:28:14.547Z,31.4
2019-04-06T00:31:20.607Z,31.4
2019-04-06T00:34:26.570Z,31.5
2019-04-06T00:37:32.542Z,31.6
2019-04-06T00:40:38.589Z,31.6
2019-04-06T00:43:44.549Z,31.6
2019-04-06T00:46:50.515Z,31.6
2019-04-06T00:49:56.582Z,31.6
2019-04-06T00:53:02.641Z,31.7
2019-04-06T00:56:08.598Z,31.8
2019-04-06T00:59:14.552Z,31.8
2019-04-06T01:02:20.515Z,31.7
2019-04-06T01:05:26.473Z,31.7
2019-04-06T01:08:32.467Z,31.8
2019-04-06T01:11:38.355Z,31.7
2019-04-06T01:14:44.459Z,31.8
2019-04-06T01:17:50.397Z,31.8
2019-04-06T01:20:56.477Z,31.8
2019-04-06T01:24:02.513Z,31.8
2019-04-06T01:27:08.500Z,31.9
2019-04-06T01:30:14.665Z,31.9
2019-04-06T01:33:20.624Z,32
2019-04-06T01:36:26.789Z,31.8
2019-04-06T01:39:32.866Z,31.9
2019-04-06T01:42:38.927Z,32
2019-04-06T01:45:45.081Z,32.1
2019-04-06T01:48:51.041Z,32
2019-04-06T01:51:57.004Z,32.1
2019-04-06T01:55:02.888Z,32
2019-04-06T01:58:09.030Z,32
2019-04-06T02:01:15.092Z,32.1
2019-04-06T02:04:21.144Z,32.2
2019-04-06T02:07:27.309Z,32.2
2019-04-06T02:10:33.579Z,32.2
2019-04-06T02:13:39.480Z,32.1
2019-04-06T02:16:45.396Z,32.2
2019-04-06T02:19:51.469Z,32.2
2019-04-06T02:22:57.529Z,32.2
2019-04-06T02:26:03.751Z,32.2
2019-04-06T02:29:09.684Z,32.2
2019-04-06T02:32:15.889Z,32.2
2019-04-06T02:35:22.197Z,32.3
2019-04-06T02:38:28.364Z,32.2
2019-04-06T02:41:34.460Z,32.3
2019-04-06T02:44:40.537Z,32.2
2019-04-06T02:47:46.646Z,32.2
2019-04-06T02:50:52.810Z,32.2
2019-04-06T02:53:59.282Z,32.3
2019-04-06T02:57:05.640Z,32.3
2019-04-06T03:00:12.106Z,32.3
2019-04-06T03:03:18.279Z,32.3
2019-04-06T03:06:27.003Z,32.3
2019-04-06T03:09:33.277Z,32.3
2019-04-06T03:12:39.464Z,32.3
2019-04-06T03:15:45.678Z,32.4
2019-04-06T03:18:52.161Z,32.3
2019-04-06T03:21:58.234Z,32.4
2019-04-06T03:25:04.542Z,32.3
2019-04-06T03:28:11.207Z,32.4
2019-04-06T03:31:27.282Z,32.4
2019-04-06T03:34:35.737Z,32.3
2019-04-06T03:37:41.661Z,32.3
2019-04-06T03:40:47.767Z,32.4
2019-04-06T03:43:53.886Z,32.4
2019-04-06T03:46:59.942Z,32.4
2019-04-06T03:50:06.421Z,32.4
2019-04-06T03:53:12.657Z,32.4
2019-04-06T03:56:18.958Z,32.3
2019-04-06T03:59:25.358Z,32.3
2019-04-06T04:02:31.811Z,32.4
2019-04-06T04:05:38.196Z,32.4
2019-04-06T04:08:44.224Z,32.5
2019-04-06T04:11:50.412Z,32.4
2019-04-06T04:14:56.763Z,32.4
2019-04-06T04:18:03.745Z,32.5
2019-04-06T04:21:10.481Z,32.4
2019-04-06T04:24:16.793Z,32.4
2019-04-06T04:27:30.649Z,32.3
2019-04-06T04:30:37.066Z,32.3
2019-04-06T04:33:43.679Z,32.3
2019-04-06T04:36:49.822Z,32.3
2019-04-06T04:39:56.419Z,32.3
2019-04-06T04:43:02.481Z,32.2
2019-04-06T04:46:08.661Z,32.2
2019-04-06T04:49:14.951Z,32.2
2019-04-06T04:52:23.983Z,32.1
2019-04-06T04:55:30.191Z,32.2
2019-04-06T04:58:36.273Z,32.1
2019-04-06T05:01:42.542Z,32
2019-04-06T05:04:48.912Z,32
2019-04-06T05:07:54.976Z,31.9
2019-04-06T05:11:01.008Z,31.7
2019-04-06T05:14:07.200Z,31.7
2019-04-06T05:17:13.160Z,31.6
2019-04-06T05:20:19.329Z,31.6
2019-04-06T05:23:27.759Z,31.4
2019-04-06T05:26:38.625Z,31.3
2019-04-06T05:29:44.888Z,31.3
2019-04-06T05:32:51.180Z,31.2
2019-04-06T05:35:57.322Z,31.3
2019-04-06T05:39:06.054Z,31.4
2019-04-06T05:42:12.049Z,31.8
2019-04-06T05:45:18.135Z,31.8
2019-04-06T05:48:24.038Z,31.7
2019-04-06T05:51:30.197Z,31.6
2019-04-06T05:54:36.481Z,31.6
2019-04-06T05:57:42.723Z,31.8
2019-04-06T06:00:48.621Z,31.6
2019-04-06T06:03:54.849Z,31.5
2019-04-06T06:07:01.028Z,31.4
2019-04-06T06:10:07.076Z,31.5
2019-04-06T06:13:13.257Z,31.6
2019-04-06T06:16:19.520Z,31.8
2019-04-06T06:19:25.569Z,31.9
2019-04-06T06:22:31.749Z,31.5
2019-04-06T06:25:38.013Z,31.5
2019-04-06T06:28:43.976Z,31.5
2019-04-06T06:31:50.142Z,31.4
2019-04-06T06:34:56.082Z,31.4
2019-04-06T06:38:02.251Z,31.2
2019-04-06T06:41:08.636Z,31.4
2019-04-06T06:44:14.913Z,31.3
2019-04-06T06:47:20.888Z,31.4
2019-04-06T06:50:27.115Z,31.3
2019-04-06T06:53:35.749Z,31.5
2019-04-06T06:56:42.044Z,31.6
2019-04-06T06:59:50.940Z,31.5
2019-04-06T07:02:57.114Z,31.3
2019-04-06T07:06:03.325Z,31.2
2019-04-06T07:09:09.429Z,31
2019-04-06T07:12:15.658Z,31.1
2019-04-06T07:15:21.554Z,31
2019-04-06T07:18:30.902Z,31
2019-04-06T07:21:36.993Z,31
2019-04-06T07:24:43.431Z,31
2019-04-06T07:27:49.596Z,31.1
2019-04-06T07:30:55.736Z,31.3
2019-04-06T07:34:01.722Z,31.3
2019-04-06T07:37:07.721Z,31.1
2019-04-06T07:40:14.049Z,31.2
2019-04-06T07:43:20.359Z,31.2
2019-04-06T07:46:26.391Z,31.1
2019-04-06T07:49:35.210Z,31.1
2019-04-06T07:52:41.700Z,31.1
2019-04-06T07:55:47.736Z,30.9
2019-04-06T07:58:53.799Z,30.9
2019-04-06T08:01:59.757Z,30.9
2019-04-06T08:05:06.333Z,30.9
2019-04-06T08:08:12.388Z,30.9
2019-04-06T08:11:18.561Z,30.9
2019-04-06T08:14:24.848Z,30.9
2019-04-06T08:17:30.995Z,30.8
2019-04-06T08:20:37.574Z,30.7
2019-04-06T08:23:43.497Z,30.6
2019-04-06T08:26:49.913Z,30.6
2019-04-06T08:29:56.274Z,30.6
2019-04-06T08:33:03.075Z,30.6
2019-04-06T08:36:09.398Z,30.5
2019-04-06T08:39:15.618Z,30.5
2019-04-06T08:42:22.163Z,30.4
2019-04-06T08:45:28.504Z,30.4
2019-04-06T08:48:34.670Z,30.4
2019-04-06T08:51:40.871Z,30.4
2019-04-06T08:54:47.310Z,30.4
2019-04-06T08:57:53.507Z,30.3
2019-04-06T09:00:59.765Z,30.2
2019-04-06T09:04:05.935Z,30.2
2019-04-06T09:07:12.090Z,30.2
2019-04-06T09:10:18.252Z,30.1
2019-04-06T09:13:24.341Z,30.1
2019-04-06T09:16:30.648Z,30
2019-04-06T09:19:36.762Z,30
2019-04-06T09:22:45.641Z,30
2019-04-06T09:25:54.821Z,29.9
2019-04-06T09:29:00.983Z,29.8
2019-04-06T09:32:07.117Z,29.8
2019-04-06T09:35:13.411Z,29.8
2019-04-06T09:38:19.887Z,29.7
2019-04-06T09:41:27.076Z,29.7
2019-04-06T09:44:33.731Z,29.6
2019-04-06T09:47:39.817Z,29.7
2019-04-06T09:50:45.977Z,29.6
2019-04-06T09:54:04.496Z,29.5
2019-04-06T09:57:13.683Z,29.5
2019-04-06T10:00:20.545Z,29.6
2019-04-06T10:03:27.026Z,29.6
2019-04-06T10:06:33.295Z,29.5
2019-04-06T10:09:40.228Z,29.5
2019-04-06T10:12:46.655Z,29.4
2019-04-06T10:15:53.639Z,29.5
2019-04-06T10:19:00.022Z,29.4
2019-04-06T10:22:06.771Z,29.4
2019-04-06T10:25:12.834Z,29.4
2019-04-06T10:28:19.375Z,29.4
2019-04-06T10:31:25.573Z,29.4
2019-04-06T10:34:31.717Z,29.4
2019-04-06T10:37:38.213Z,29.3
2019-04-06T10:40:44.424Z,29.3
2019-04-06T10:43:50.640Z,29.2
2019-04-06T10:46:57.012Z,29.3
2019-04-06T10:50:03.079Z,29.2
2019-04-06T10:53:10.168Z,29.2
2019-04-06T10:56:18.986Z,29.1
2019-04-06T10:59:25.355Z,29.1
2019-04-06T11:02:31.623Z,29.1
2019-04-06T11:05:38.011Z,29
2019-04-06T11:08:44.883Z,29
2019-04-06T11:11:51.045Z,29.1
2019-04-06T11:14:56.980Z,28.9
2019-04-06T11:18:03.794Z,29
2019-04-06T11:21:09.782Z,28.9
2019-04-06T11:24:17.073Z,28.9
2019-04-06T11:27:23.774Z,28.9
2019-04-06T11:30:30.246Z,28.8
2019-04-06T11:33:36.864Z,29
2019-04-06T11:36:43.640Z,28.8
2019-04-06T11:39:50.008Z,28.8
2019-04-06T11:42:59.254Z,28.8
2019-04-06T11:46:06.666Z,28.8
2019-04-06T11:49:13.008Z,28.8
2019-04-06T11:52:19.379Z,28.7
2019-04-06T11:55:26.166Z,28.7
2019-04-06T11:58:32.540Z,28.8
2019-04-06T12:01:38.609Z,28.6
2019-04-06T12:04:44.962Z,28.5
2019-04-06T12:07:54.505Z,28.7
2019-04-06T12:11:00.790Z,28.7
2019-04-06T12:14:07.452Z,28.5
2019-04-06T12:17:13.813Z,28.5
2019-04-06T12:20:23.390Z,28.5
2019-04-06T12:23:33.789Z,28.4
2019-04-06T12:26:40.600Z,28.5
2019-04-06T12:29:46.668Z,28.5
2019-04-06T12:32:53.060Z,28.4
2019-04-06T12:35:59.988Z,28.4
2019-04-06T12:39:06.058Z,28.3
2019-04-06T12:42:12.732Z,28.5
2019-04-06T12:45:19.225Z,28.3
2019-04-06T12:48:25.807Z,28.4
2019-04-06T12:51:31.838Z,28.4
2019-04-06T12:54:38.610Z,28.3
2019-04-06T12:57:46.231Z,28.5
2019-04-06T13:00:54.588Z,28.4
2019-04-06T13:04:01.135Z,28.4
2019-04-06T13:07:07.615Z,28.3
2019-04-06T13:10:14.080Z,28.4
2019-04-06T13:13:20.246Z,28.3
2019-04-06T13:16:27.131Z,28.3
2019-04-06T13:19:34.828Z,28.4
2019-04-06T13:22:41.229Z,28.1
2019-04-06T13:25:47.571Z,28.3
2019-04-06T13:28:53.831Z,28.4
2019-04-06T13:32:00.105Z,28.4
2019-04-06T13:35:06.881Z,28.1
2019-04-06T13:38:14.018Z,28
2019-04-06T13:41:20.345Z,28.2
2019-04-06T13:44:29.101Z,28.3
2019-04-06T13:47:35.031Z,28.3
2019-04-06T13:50:41.394Z,28.2
2019-04-06T13:53:47.655Z,28.2
2019-04-06T13:56:54.043Z,28.2
2019-04-06T14:00:00.717Z,28.2
2019-04-06T14:03:07.890Z,28.2
2019-04-06T14:06:14.670Z,28.1
2019-04-06T14:09:21.968Z,28.2
2019-04-06T14:12:28.232Z,28.2
2019-04-06T14:15:34.983Z,28.2
2019-04-06T14:18:41.478Z,28.3
2019-04-06T14:21:48.025Z,28.3
2019-04-06T14:24:54.967Z,28.3
2019-04-06T14:28:04.264Z,28.4
2019-04-06T14:31:29.470Z,28.4
2019-04-06T14:34:36.694Z,28.4
2019-04-06T14:37:44.172Z,28.3
2019-04-06T14:40:50.644Z,28.4
2019-04-06T14:43:57.795Z,28.4
2019-04-06T14:47:04.408Z,28.5
2019-04-06T14:50:10.982Z,28.4
2019-04-06T14:53:17.863Z,28.6
2019-04-06T14:56:24.425Z,28.5
2019-04-06T14:59:33.128Z,28.5
2019-04-06T15:02:40.043Z,28.6
2019-04-06T15:05:46.826Z,28.6
2019-04-06T15:08:56.264Z,28.7
2019-04-06T15:12:03.145Z,28.7
2019-04-06T15:15:10.027Z,28.7
2019-04-06T15:18:17.317Z,28.8
2019-04-06T15:21:23.788Z,28.7
2019-04-06T15:24:31.400Z,28.9
2019-04-06T15:27:37.449Z,28.8
2019-04-06T15:30:44.843Z,28.9
2019-04-06T15:33:51.374Z,28.9
2019-04-06T15:36:58.313Z,29
2019-04-06T15:40:09.278Z,29
2019-04-06T15:43:20.060Z,29
2019-04-06T15:46:26.748Z,29.1
2019-04-06T15:49:36.485Z,29.1
2019-04-06T15:52:45.860Z,29.1
2019-04-06T15:55:53.234Z,29.1
2019-04-06T15:59:01.094Z,29.2
2019-04-06T16:02:07.893Z,29.2
2019-04-06T16:05:15.440Z,29.3
2019-04-06T16:08:22.539Z,29.3
2019-04-06T16:11:29.235Z,29.3
2019-04-06T16:14:36.356Z,29.3
2019-04-06T16:17:43.383Z,29.4
2019-04-06T16:20:50.786Z,29.4
2019-04-06T16:24:04.856Z,29.5
2019-04-06T16:27:12.063Z,29.5
2019-04-06T16:30:18.550Z,29.5
2019-04-06T16:33:25.090Z,29.6
2019-04-06T16:36:31.809Z,29.6
2019-04-06T16:39:38.463Z,29.7
2019-04-06T16:42:44.943Z,29.7
2019-04-06T16:45:52.242Z,29.7
2019-04-06T16:48:58.900Z,29.8
2019-04-06T16:52:06.090Z,29.8
2019-04-06T16:55:13.076Z,29.9
2019-04-06T16:58:20.063Z,29.9
2019-04-06T17:01:26.266Z,29.9
2019-04-06T17:04:33.306Z,30.1
2019-04-06T17:07:40.705Z,30.1
2019-04-06T17:10:47.285Z,30.2
2019-04-06T17:13:54.153Z,30.2
2019-04-06T17:17:01.356Z,30.3
2019-04-06T17:20:09.372Z,30.3
2019-04-06T17:23:16.326Z,30.4
2019-04-06T17:26:26.600Z,30.4
2019-04-06T17:29:34.594Z,30.4
2019-04-06T17:32:40.674Z,30.4
2019-04-06T17:35:47.247Z,30.4
2019-04-06T17:38:55.053Z,30.5
2019-04-06T17:42:02.138Z,30.5
2019-04-06T17:45:13.680Z,30.5
2019-04-06T17:48:20.915Z,30.6
2019-04-06T17:51:28.205Z,30.5
2019-04-06T17:54:35.499Z,30.6
2019-04-06T17:57:41.826Z,30.6
2019-04-06T18:00:51.489Z,30.6
2019-04-06T18:04:00.598Z,30.6
2019-04-06T18:07:08.149Z,30.6
2019-04-06T18:10:15.229Z,30.6
2019-04-06T18:13:22.317Z,30.6
2019-04-06T18:16:29.404Z,30.7
2019-04-06T18:19:36.069Z,30.6
2019-04-06T18:22:42.838Z,30.7
2019-04-06T18:25:50.149Z,30.7
2019-04-06T18:28:56.216Z,30.7
2019-04-06T18:32:04.749Z,30.7
2019-04-06T18:35:11.413Z,30.7
2019-04-06T18:38:17.808Z,30.6
2019-04-06T18:41:26.292Z,30.7
2019-04-06T18:44:37.505Z,30.7
2019-04-06T18:47:45.590Z,30.6
2019-04-06T18:50:53.003Z,30.7
2019-04-06T18:53:59.601Z,30.7
2019-04-06T18:57:07.093Z,30.7
2019-04-06T19:00:16.016Z,30.7
2019-04-06T19:03:23.224Z,30.7
2019-04-06T19:06:31.049Z,30.7
2019-04-06T19:09:38.885Z,30.7
2019-04-06T19:12:47.214Z,30.7
2019-04-06T19:15:57.355Z,30.7
2019-04-06T19:19:04.238Z,30.7
2019-04-06T19:22:12.553Z,30.7
2019-04-06T19:25:20.578Z,30.6
2019-04-06T19:28:28.157Z,30.7
2019-04-06T19:31:35.456Z,30.7
2019-04-06T19:34:42.833Z,30.7
2019-04-06T19:37:50.554Z,30.7
2019-04-06T19:40:59.165Z,30.8
2019-04-06T19:44:09.154Z,30.7
2019-04-06T19:47:17.742Z,30.8
2019-04-06T19:50:27.094Z,30.7
2019-04-06T19:53:35.216Z,30.7
2019-04-06T19:56:42.791Z,30.7
2019-04-06T19:59:51.437Z,30.8
2019-04-06T20:03:00.521Z,30.8
2019-04-06T20:06:07.763Z,30.8
2019-04-06T20:09:15.067Z,30.8
2019-04-06T20:12:22.781Z,30.8
2019-04-06T20:15:29.311Z,30.8
2019-04-06T20:18:37.839Z,30.9
2019-04-06T20:21:47.575Z,30.8
2019-04-06T20:24:56.585Z,30.9
2019-04-06T20:28:04.609Z,30.8
2019-04-06T20:31:13.174Z,30.8
2019-04-06T20:34:20.828Z,30.9
2019-04-06T20:37:30.761Z,30.9
2019-04-06T20:40:41.800Z,30.9
2019-04-06T20:43:49.424Z,30.8
2019-04-06T20:46:57.367Z,30.9
2019-04-06T20:50:06.067Z,30.9
2019-04-06T20:53:15.739Z,30.9
2019-04-06T20:56:25.104Z,31
2019-04-06T20:59:34.603Z,30.9
2019-04-06T21:02:43.926Z,31
2019-04-06T21:05:52.006Z,31
2019-04-06T21:08:59.265Z,31
2019-04-06T21:12:08.394Z,31
2019-04-06T21:15:21.416Z,31
2019-04-06T21:18:31.579Z,31
2019-04-06T21:21:38.821Z,31
2019-04-06T21:24:46.166Z,31.1
2019-04-06T21:27:54.991Z,31.1
2019-04-06T21:31:04.366Z,31.1
2019-04-06T21:34:16.763Z,31.1
2019-04-06T21:37:24.228Z,31.1
2019-04-06T21:40:33.010Z,31.2
2019-04-06T21:43:40.966Z,31.2
2019-04-06T21:46:49.264Z,31.2
2019-04-06T21:49:56.880Z,31.2
2019-04-06T21:53:04.684Z,31.2
2019-04-06T21:56:13.435Z,31.2
2019-04-06T21:59:22.543Z,31.2
2019-04-06T22:02:30.803Z,31.2
2019-04-06T22:05:38.381Z,31.3
2019-04-06T22:08:46.731Z,31.3
2019-04-06T22:11:54.692Z,31.2
2019-04-06T22:15:03.060Z,31.3
2019-04-06T22:18:12.549Z,31.3
2019-04-06T22:21:20.446Z,31.3
2019-04-06T22:24:28.372Z,31.3
2019-04-06T22:27:38.056Z,31.3
2019-04-06T22:30:46.518Z,31.3
2019-04-06T22:33:54.525Z,31.4
2019-04-06T22:37:03.630Z,31.4
2019-04-06T22:40:10.946Z,31.4
2019-04-06T22:43:20.142Z,31.4
2019-04-06T22:46:27.922Z,31.4
2019-04-06T22:49:37.545Z,31.4
2019-04-06T22:52:45.862Z,31.5
2019-04-06T22:55:53.969Z,31.5
2019-04-06T22:59:03.605Z,31.5
2019-04-06T23:02:12.537Z,31.4
2019-04-06T23:05:19.965Z,31.5
2019-04-06T23:08:27.760Z,31.5
2019-04-06T23:11:36.639Z,31.5
2019-04-06T23:14:44.972Z,31.5
2019-04-06T23:17:53.287Z,31.6
2019-04-06T23:21:01.501Z,31.5
2019-04-06T23:24:11.560Z,31.5
2019-04-06T23:27:18.312Z,31.5
2019-04-06T23:30:29.211Z,31.5
2019-04-06T23:33:37.999Z,31.6
2019-04-06T23:36:47.346Z,31.6
2019-04-06T23:39:54.944Z,31.6
2019-04-06T23:43:04.011Z,31.6
2019-04-06T23:46:12.066Z,31.6
2019-04-06T23:49:20.842Z,31.6
2019-04-06T23:52:30.600Z,31.6
2019-04-06T23:55:38.093Z,31.6
2019-04-06T23:58:47.753Z,31.6
